sensor_id;sensor_type;location;lat;lon;timestamp;pressure;altitude;pressure_sealevel;temperature;humidity
43553;BME280;29153;42.696;23.218;2022-07-01T00:01:44;94480.41;;;16.85;95.65
43553;BME280;29153;42.696;23.218;2022-07-01T00:04:14;94479.91;;;16.83;95.86
43553;BME280;29153;42.696;23.218;2022-07-01T00:06:41;94493.05;;;16.82;95.74
43553;BME280;29153;42.696;23.218;2022-07-01T00:09:09;94496.20;;;16.75;95.77
43553;BME280;29153;42.696;23.218;2022-07-01T00:11:37;94495.95;;;16.74;95.71
43553;BME280;29153;42.696;23.218;2022-07-01T00:14:04;94492.88;;;16.70;95.91
43553;BME280;29153;42.696;23.218;2022-07-01T00:16:32;94492.17;;;16.67;96.28
43553;BME280;29153;42.696;23.218;2022-07-01T00:18:59;94494.21;;;16.70;96.67
43553;BME280;29153;42.696;23.218;2022-07-01T00:21:27;94493.73;;;16.59;97.13
43553;BME280;29153;42.696;23.218;2022-07-01T00:23:54;94506.13;;;16.55;97.43
43553;BME280;29153;42.696;23.218;2022-07-01T00:26:22;94508.75;;;16.58;97.20
43553;BME280;29153;42.696;23.218;2022-07-01T00:28:50;94512.31;;;16.53;97.27
43553;BME280;29153;42.696;23.218;2022-07-01T00:31:17;94510.92;;;16.56;97.48
43553;BME280;29153;42.696;23.218;2022-07-01T00:33:45;94507.59;;;16.50;97.32
43553;BME280;29153;42.696;23.218;2022-07-01T00:36:12;94512.62;;;16.52;97.27
43553;BME280;29153;42.696;23.218;2022-07-01T00:38:40;94511.14;;;16.57;97.20
43553;BME280;29153;42.696;23.218;2022-07-01T00:41:08;94508.25;;;16.56;96.88
43553;BME280;29153;42.696;23.218;2022-07-01T00:43:36;94517.31;;;16.57;96.73
43553;BME280;29153;42.696;23.218;2022-07-01T00:46:05;94509.59;;;16.56;96.45
43553;BME280;29153;42.696;23.218;2022-07-01T00:48:33;94513.36;;;16.55;96.35
43553;BME280;29153;42.696;23.218;2022-07-01T00:51:02;94506.51;;;16.51;96.70
43553;BME280;29153;42.696;23.218;2022-07-01T00:53:31;94501.32;;;16.55;96.61
43553;BME280;29153;42.696;23.218;2022-07-01T00:55:59;94499.98;;;16.55;96.38
43553;BME280;29153;42.696;23.218;2022-07-01T00:58:28;94508.30;;;16.53;96.29
43553;BME280;29153;42.696;23.218;2022-07-01T01:00:59;94504.38;;;16.51;96.48
43553;BME280;29153;42.696;23.218;2022-07-01T01:03:26;94506.78;;;16.41;96.73
43553;BME280;29153;42.696;23.218;2022-07-01T01:05:54;94514.69;;;16.35;97.17
43553;BME280;29153;42.696;23.218;2022-07-01T01:08:23;94517.20;;;16.31;97.51
43553;BME280;29153;42.696;23.218;2022-07-01T01:10:53;94511.14;;;16.28;97.63
43553;BME280;29153;42.696;23.218;2022-07-01T01:13:20;94507.30;;;16.32;97.57
43553;BME280;29153;42.696;23.218;2022-07-01T01:15:48;94510.05;;;16.29;97.54
43553;BME280;29153;42.696;23.218;2022-07-01T01:18:16;94505.80;;;16.28;97.54
43553;BME280;29153;42.696;23.218;2022-07-01T01:20:43;94511.85;;;16.31;97.39
43553;BME280;29153;42.696;23.218;2022-07-01T01:23:11;94510.43;;;16.25;97.52
43553;BME280;29153;42.696;23.218;2022-07-01T01:25:38;94510.89;;;16.27;97.62
43553;BME280;29153;42.696;23.218;2022-07-01T01:28:06;94507.59;;;16.30;97.58
43553;BME280;29153;42.696;23.218;2022-07-01T01:30:34;94505.16;;;16.31;97.54
43553;BME280;29153;42.696;23.218;2022-07-01T01:33:02;94499.41;;;16.27;97.53
43553;BME280;29153;42.696;23.218;2022-07-01T01:35:30;94508.14;;;16.21;97.66
43553;BME280;29153;42.696;23.218;2022-07-01T01:37:57;94507.31;;;16.12;97.75
43553;BME280;29153;42.696;23.218;2022-07-01T01:40:25;94503.43;;;16.07;98.35
43553;BME280;29153;42.696;23.218;2022-07-01T01:42:53;94513.63;;;16.05;98.43
43553;BME280;29153;42.696;23.218;2022-07-01T01:45:20;94518.17;;;16.05;98.45
43553;BME280;29153;42.696;23.218;2022-07-01T01:47:48;94516.84;;;16.05;98.57
43553;BME280;29153;42.696;23.218;2022-07-01T01:50:15;94514.12;;;16.07;98.39
43553;BME280;29153;42.696;23.218;2022-07-01T01:52:43;94526.14;;;16.07;98.54
43553;BME280;29153;42.696;23.218;2022-07-01T01:55:11;94520.42;;;16.11;98.37
43553;BME280;29153;42.696;23.218;2022-07-01T01:57:40;94514.78;;;16.13;98.25
43553;BME280;29153;42.696;23.218;2022-07-01T02:00:08;94516.30;;;16.05;98.17
43553;BME280;29153;42.696;23.218;2022-07-01T02:02:36;94526.09;;;15.99;98.35
43553;BME280;29153;42.696;23.218;2022-07-01T02:05:05;94525.31;;;15.98;98.17
43553;BME280;29153;42.696;23.218;2022-07-01T02:07:33;94529.31;;;15.98;98.08
43553;BME280;29153;42.696;23.218;2022-07-01T02:10:01;94527.69;;;16.00;97.85
43553;BME280;29153;42.696;23.218;2022-07-01T02:12:29;94533.25;;;16.01;97.50
43553;BME280;29153;42.696;23.218;2022-07-01T02:14:58;94523.02;;;15.94;97.58
43553;BME280;29153;42.696;23.218;2022-07-01T02:17:26;94531.57;;;15.93;97.86
43553;BME280;29153;42.696;23.218;2022-07-01T02:19:53;94524.05;;;15.84;98.15
43553;BME280;29153;42.696;23.218;2022-07-01T02:22:21;94532.34;;;15.74;98.88
43553;BME280;29153;42.696;23.218;2022-07-01T02:24:48;94534.68;;;15.76;99.29
43553;BME280;29153;42.696;23.218;2022-07-01T02:27:16;94540.94;;;15.82;99.12
43553;BME280;29153;42.696;23.218;2022-07-01T02:29:45;94548.05;;;15.87;98.90
43553;BME280;29153;42.696;23.218;2022-07-01T02:32:12;94546.92;;;15.88;98.74
43553;BME280;29153;42.696;23.218;2022-07-01T02:34:40;94543.25;;;15.86;98.45
43553;BME280;29153;42.696;23.218;2022-07-01T02:37:08;94543.93;;;15.70;98.87
43553;BME280;29153;42.696;23.218;2022-07-01T02:39:35;94558.67;;;15.78;99.16
43553;BME280;29153;42.696;23.218;2022-07-01T02:42:03;94550.52;;;15.83;98.84
43553;BME280;29153;42.696;23.218;2022-07-01T02:44:48;94558.48;;;15.86;98.52
43553;BME280;29153;42.696;23.218;2022-07-01T02:47:16;94555.09;;;15.83;98.32
43553;BME280;29153;42.696;23.218;2022-07-01T02:49:44;94556.77;;;15.79;98.51
43553;BME280;29153;42.696;23.218;2022-07-01T02:52:11;94559.69;;;15.80;98.35
43553;BME280;29153;42.696;23.218;2022-07-01T02:54:39;94557.63;;;15.77;98.18
43553;BME280;29153;42.696;23.218;2022-07-01T02:57:07;94567.39;;;15.70;98.18
43553;BME280;29153;42.696;23.218;2022-07-01T02:59:35;94569.34;;;15.67;98.49
43553;BME280;29153;42.696;23.218;2022-07-01T03:02:03;94573.97;;;15.64;98.75
43553;BME280;29153;42.696;23.218;2022-07-01T03:04:30;94563.71;;;15.69;98.65
43553;BME280;29153;42.696;23.218;2022-07-01T03:06:58;94569.05;;;15.69;98.63
43553;BME280;29153;42.696;23.218;2022-07-01T03:09:26;94571.90;;;15.72;98.37
43553;BME280;29153;42.696;23.218;2022-07-01T03:11:53;94579.25;;;15.78;98.33
43553;BME280;29153;42.696;23.218;2022-07-01T03:14:21;94583.73;;;15.80;98.06
43553;BME280;29153;42.696;23.218;2022-07-01T03:16:48;94575.25;;;15.78;98.29
43553;BME280;29153;42.696;23.218;2022-07-01T03:19:16;94575.72;;;15.80;98.33
43553;BME280;29153;42.696;23.218;2022-07-01T03:21:44;94579.06;;;15.85;98.66
43553;BME280;29153;42.696;23.218;2022-07-01T03:24:11;94581.61;;;15.90;98.71
43553;BME280;29153;42.696;23.218;2022-07-01T03:26:39;94587.38;;;15.95;98.74
43553;BME280;29153;42.696;23.218;2022-07-01T03:29:06;94583.47;;;16.01;98.62
43553;BME280;29153;42.696;23.218;2022-07-01T03:31:34;94585.90;;;16.11;98.37
43553;BME280;29153;42.696;23.218;2022-07-01T03:55:48;94589.34;;;16.73;95.48
43553;BME280;29153;42.696;23.218;2022-07-01T03:58:16;94590.33;;;16.86;95.16
43553;BME280;29153;42.696;23.218;2022-07-01T04:00:44;94595.40;;;16.96;94.84
43553;BME280;29153;42.696;23.218;2022-07-01T04:03:12;94593.38;;;17.02;94.59
43553;BME280;29153;42.696;23.218;2022-07-01T04:05:39;94600.86;;;17.02;94.69
43553;BME280;29153;42.696;23.218;2022-07-01T04:08:08;94598.75;;;17.10;94.42
43553;BME280;29153;42.696;23.218;2022-07-01T04:10:38;94599.77;;;17.20;94.29
43553;BME280;29153;42.696;23.218;2022-07-01T04:13:06;94594.22;;;17.28;94.10
43553;BME280;29153;42.696;23.218;2022-07-01T04:15:33;94598.39;;;17.32;94.31
43553;BME280;29153;42.696;23.218;2022-07-01T04:18:01;94603.03;;;17.46;94.17
43553;BME280;29153;42.696;23.218;2022-07-01T04:20:29;94597.06;;;17.57;93.80
43553;BME280;29153;42.696;23.218;2022-07-01T04:22:56;94605.29;;;17.69;93.73
43553;BME280;29153;42.696;23.218;2022-07-01T04:25:24;94603.40;;;17.79;93.61
43553;BME280;29153;42.696;23.218;2022-07-01T04:27:52;94602.66;;;17.93;93.42
43553;BME280;29153;42.696;23.218;2022-07-01T04:30:19;94603.77;;;18.09;92.92
43553;BME280;29153;42.696;23.218;2022-07-01T04:32:47;94609.02;;;18.20;92.57
43553;BME280;29153;42.696;23.218;2022-07-01T04:35:14;94602.53;;;18.30;92.29
43553;BME280;29153;42.696;23.218;2022-07-01T04:37:42;94608.16;;;18.45;92.16
43553;BME280;29153;42.696;23.218;2022-07-01T04:40:10;94609.74;;;18.55;91.94
43553;BME280;29153;42.696;23.218;2022-07-01T04:42:38;94609.85;;;18.67;91.95
43553;BME280;29153;42.696;23.218;2022-07-01T04:45:06;94608.61;;;18.79;91.98
43553;BME280;29153;42.696;23.218;2022-07-01T04:47:34;94604.80;;;18.89;91.83
43553;BME280;29153;42.696;23.218;2022-07-01T04:50:01;94610.25;;;19.01;91.52
43553;BME280;29153;42.696;23.218;2022-07-01T04:52:29;94617.05;;;19.13;90.80
43553;BME280;29153;42.696;23.218;2022-07-01T04:54:56;94609.73;;;19.37;89.20
43553;BME280;29153;42.696;23.218;2022-07-01T04:57:24;94609.73;;;19.37;89.20
43553;BME280;29153;42.696;23.218;2022-07-01T04:59:52;94607.88;;;19.58;87.66
43553;BME280;29153;42.696;23.218;2022-07-01T05:02:19;94607.88;;;19.58;87.66
43553;BME280;29153;42.696;23.218;2022-07-01T05:04:47;94608.42;;;19.72;87.28
43553;BME280;29153;42.696;23.218;2022-07-01T05:07:14;94602.03;;;19.97;85.44
43553;BME280;29153;42.696;23.218;2022-07-01T05:09:58;94602.03;;;19.97;85.44
43553;BME280;29153;42.696;23.218;2022-07-01T05:12:28;94606.11;;;20.10;85.62
43553;BME280;29153;42.696;23.218;2022-07-01T05:14:56;94606.11;;;20.10;85.62
43553;BME280;29153;42.696;23.218;2022-07-01T05:17:23;94606.11;;;20.16;83.81
43553;BME280;29153;42.696;23.218;2022-07-01T05:19:53;94612.91;;;20.28;82.51
43553;BME280;29153;42.696;23.218;2022-07-01T05:22:38;94608.58;;;20.41;79.40
43553;BME280;29153;42.696;23.218;2022-07-01T05:25:06;94608.58;;;20.41;79.40
43553;BME280;29153;42.696;23.218;2022-07-01T05:27:33;94609.83;;;20.50;79.78
43553;BME280;29153;42.696;23.218;2022-07-01T05:30:01;94614.33;;;20.58;79.60
43553;BME280;29153;42.696;23.218;2022-07-01T05:32:29;94617.41;;;20.75;80.75
43553;BME280;29153;42.696;23.218;2022-07-01T05:34:57;94617.29;;;20.77;79.67
43553;BME280;29153;42.696;23.218;2022-07-01T05:37:24;94615.27;;;20.80;80.34
43553;BME280;29153;42.696;23.218;2022-07-01T05:39:52;94617.06;;;20.88;80.39
43553;BME280;29153;42.696;23.218;2022-07-01T05:42:19;94615.30;;;21.05;80.45
43553;BME280;29153;42.696;23.218;2022-07-01T05:44:47;94616.29;;;21.06;77.01
43553;BME280;29153;42.696;23.218;2022-07-01T05:47:15;94620.67;;;21.11;77.39
43553;BME280;29153;42.696;23.218;2022-07-01T05:49:42;94616.98;;;21.09;77.01
43553;BME280;29153;42.696;23.218;2022-07-01T05:52:10;94616.40;;;21.10;77.00
43553;BME280;29153;42.696;23.218;2022-07-01T05:54:38;94618.34;;;21.27;77.72
43553;BME280;29153;42.696;23.218;2022-07-01T05:57:06;94615.64;;;21.33;77.82
43553;BME280;29153;42.696;23.218;2022-07-01T05:59:33;94617.76;;;21.40;77.78
43553;BME280;29153;42.696;23.218;2022-07-01T06:02:01;94625.84;;;21.46;76.06
43553;BME280;29153;42.696;23.218;2022-07-01T06:04:29;94627.53;;;21.45;75.39
43553;BME280;29153;42.696;23.218;2022-07-01T06:06:56;94620.79;;;21.51;77.35
43553;BME280;29153;42.696;23.218;2022-07-01T06:09:24;94625.06;;;21.52;74.93
43553;BME280;29153;42.696;23.218;2022-07-01T06:11:52;94625.83;;;21.58;75.03
43553;BME280;29153;42.696;23.218;2022-07-01T06:14:19;94618.17;;;21.66;74.37
43553;BME280;29153;42.696;23.218;2022-07-01T06:16:47;94614.09;;;21.78;74.93
43553;BME280;29153;42.696;23.218;2022-07-01T06:19:14;94618.58;;;21.93;75.26
43553;BME280;29153;42.696;23.218;2022-07-01T06:21:42;94628.32;;;21.91;72.17
43553;BME280;29153;42.696;23.218;2022-07-01T06:24:10;94630.81;;;21.96;72.09
43553;BME280;29153;42.696;23.218;2022-07-01T06:26:37;94630.45;;;22.04;73.00
43553;BME280;29153;42.696;23.218;2022-07-01T06:29:05;94633.59;;;22.12;72.59
43553;BME280;29153;42.696;23.218;2022-07-01T06:31:33;94625.92;;;22.14;72.46
43553;BME280;29153;42.696;23.218;2022-07-01T06:34:01;94634.67;;;22.17;73.81
43553;BME280;29153;42.696;23.218;2022-07-01T06:36:28;94628.39;;;22.13;72.95
43553;BME280;29153;42.696;23.218;2022-07-01T06:38:56;94628.14;;;22.24;73.86
43553;BME280;29153;42.696;23.218;2022-07-01T06:41:24;94630.64;;;22.39;74.06
43553;BME280;29153;42.696;23.218;2022-07-01T06:43:55;94622.93;;;22.53;72.71
43553;BME280;29153;42.696;23.218;2022-07-01T06:46:25;94620.05;;;22.67;73.27
43553;BME280;29153;42.696;23.218;2022-07-01T06:48:53;94625.13;;;22.63;71.56
43553;BME280;29153;42.696;23.218;2022-07-01T06:51:22;94619.59;;;22.65;71.61
43553;BME280;29153;42.696;23.218;2022-07-01T06:53:49;94625.81;;;22.82;70.35
43553;BME280;29153;42.696;23.218;2022-07-01T06:56:18;94625.05;;;22.97;72.59
43553;BME280;29153;42.696;23.218;2022-07-01T06:58:45;94620.13;;;22.93;70.91
43553;BME280;29153;42.696;23.218;2022-07-01T07:01:13;94623.53;;;23.05;70.75
43553;BME280;29153;42.696;23.218;2022-07-01T07:03:40;94624.03;;;23.11;69.83
43553;BME280;29153;42.696;23.218;2022-07-01T07:06:08;94623.73;;;23.22;70.36
43553;BME280;29153;42.696;23.218;2022-07-01T07:08:36;94623.96;;;23.33;70.31
43553;BME280;29153;42.696;23.218;2022-07-01T07:13:31;94630.33;;;23.56;69.10
43553;BME280;29153;42.696;23.218;2022-07-01T07:15:59;94636.63;;;23.70;68.71
43553;BME280;29153;42.696;23.218;2022-07-01T07:18:27;94635.08;;;23.78;70.91
43553;BME280;29153;42.696;23.218;2022-07-01T07:20:54;94629.47;;;23.87;67.38
43553;BME280;29153;42.696;23.218;2022-07-01T07:23:22;94627.80;;;24.17;68.43
43553;BME280;29153;42.696;23.218;2022-07-01T07:25:49;94634.48;;;24.42;65.26
43553;BME280;29153;42.696;23.218;2022-07-01T07:28:17;94632.45;;;24.68;65.01
43553;BME280;29153;42.696;23.218;2022-07-01T07:30:45;94631.97;;;25.18;62.53
43553;BME280;29153;42.696;23.218;2022-07-01T07:33:12;94626.65;;;25.74;64.10
43553;BME280;29153;42.696;23.218;2022-07-01T07:35:40;94625.23;;;26.13;60.15
43553;BME280;29153;42.696;23.218;2022-07-01T07:38:08;94627.24;;;26.70;57.46
43553;BME280;29153;42.696;23.218;2022-07-01T07:40:36;94622.77;;;27.29;57.29
43553;BME280;29153;42.696;23.218;2022-07-01T07:43:04;94630.76;;;27.86;55.76
43553;BME280;29153;42.696;23.218;2022-07-01T07:45:34;94625.95;;;28.30;53.96
43553;BME280;29153;42.696;23.218;2022-07-01T07:48:02;94627.31;;;28.82;53.15
43553;BME280;29153;42.696;23.218;2022-07-01T07:50:30;94623.83;;;29.00;50.48
43553;BME280;29153;42.696;23.218;2022-07-01T07:52:58;94612.37;;;29.46;49.91
43553;BME280;29153;42.696;23.218;2022-07-01T07:55:26;94616.09;;;29.48;49.76
43553;BME280;29153;42.696;23.218;2022-07-01T07:57:54;94619.53;;;29.80;49.91
43553;BME280;29153;42.696;23.218;2022-07-01T08:00:22;94616.93;;;30.13;48.92
43553;BME280;29153;42.696;23.218;2022-07-01T08:02:49;94623.94;;;30.24;48.01
43553;BME280;29153;42.696;23.218;2022-07-01T08:05:17;94616.08;;;30.77;48.95
43553;BME280;29153;42.696;23.218;2022-07-01T08:07:45;94615.27;;;30.84;45.37
43553;BME280;29153;42.696;23.218;2022-07-01T08:10:15;94609.69;;;31.05;44.35
43553;BME280;29153;42.696;23.218;2022-07-01T08:12:43;94610.25;;;31.59;45.72
43553;BME280;29153;42.696;23.218;2022-07-01T08:15:10;94611.41;;;31.81;42.08
43553;BME280;29153;42.696;23.218;2022-07-01T08:17:38;94602.14;;;31.68;43.17
43553;BME280;29153;42.696;23.218;2022-07-01T08:20:06;94599.67;;;31.99;42.67
43553;BME280;29153;42.696;23.218;2022-07-01T08:22:34;94598.22;;;32.06;41.31
43553;BME280;29153;42.696;23.218;2022-07-01T08:25:02;94593.34;;;32.39;43.60
43553;BME280;29153;42.696;23.218;2022-07-01T08:27:30;94595.64;;;32.60;42.67
43553;BME280;29153;42.696;23.218;2022-07-01T08:29:57;94593.47;;;32.63;41.57
43553;BME280;29153;42.696;23.218;2022-07-01T08:32:25;94597.07;;;32.71;41.10
43553;BME280;29153;42.696;23.218;2022-07-01T08:34:52;94593.94;;;32.54;40.72
43553;BME280;29153;42.696;23.218;2022-07-01T08:37:20;94590.59;;;32.73;40.65
43553;BME280;29153;42.696;23.218;2022-07-01T08:39:48;94589.63;;;32.99;42.48
43553;BME280;29153;42.696;23.218;2022-07-01T08:42:15;94590.73;;;33.16;43.71
43553;BME280;29153;42.696;23.218;2022-07-01T08:44:43;94586.59;;;33.20;40.85
43553;BME280;29153;42.696;23.218;2022-07-01T08:47:12;94578.17;;;33.54;43.09
43553;BME280;29153;42.696;23.218;2022-07-01T08:49:40;94579.96;;;33.40;40.16
43553;BME280;29153;42.696;23.218;2022-07-01T08:52:08;94588.39;;;33.42;45.38
43553;BME280;29153;42.696;23.218;2022-07-01T08:54:37;94588.85;;;32.98;39.58
43553;BME280;29153;42.696;23.218;2022-07-01T08:57:06;94590.59;;;33.62;43.63
43553;BME280;29153;42.696;23.218;2022-07-01T08:59:34;94585.56;;;33.57;39.67
43553;BME280;29153;42.696;23.218;2022-07-01T09:02:04;94586.18;;;33.33;37.93
43553;BME280;29153;42.696;23.218;2022-07-01T09:04:32;94593.08;;;33.29;41.08
43553;BME280;29153;42.696;23.218;2022-07-01T09:07:08;94581.86;;;33.44;39.94
43553;BME280;29153;42.696;23.218;2022-07-01T09:09:35;94585.93;;;33.35;43.68
43553;BME280;29153;42.696;23.218;2022-07-01T09:12:04;94577.09;;;33.36;43.01
43553;BME280;29153;42.696;23.218;2022-07-01T09:14:33;94583.19;;;33.24;39.41
43553;BME280;29153;42.696;23.218;2022-07-01T09:17:05;94582.81;;;33.33;38.83
43553;BME280;29153;42.696;23.218;2022-07-01T09:19:35;94586.83;;;33.02;40.02
43553;BME280;29153;42.696;23.218;2022-07-01T09:22:03;94582.16;;;33.14;39.47
43553;BME280;29153;42.696;23.218;2022-07-01T09:24:36;94589.89;;;32.66;38.46
43553;BME280;29153;42.696;23.218;2022-07-01T09:27:09;94589.97;;;32.74;40.56
43553;BME280;29153;42.696;23.218;2022-07-01T09:29:52;94590.34;;;32.45;42.19
43553;BME280;29153;42.696;23.218;2022-07-01T09:32:22;94592.69;;;32.62;41.74
43553;BME280;29153;42.696;23.218;2022-07-01T09:34:51;94591.34;;;32.74;38.01
43553;BME280;29153;42.696;23.218;2022-07-01T09:37:21;94591.53;;;33.02;38.12
43553;BME280;29153;42.696;23.218;2022-07-01T09:42:22;94581.37;;;33.25;39.69
43553;BME280;29153;42.696;23.218;2022-07-01T09:47:27;94572.84;;;32.93;39.07
43553;BME280;29153;42.696;23.218;2022-07-01T09:49:57;94562.52;;;32.89;43.98
43553;BME280;29153;42.696;23.218;2022-07-01T09:52:25;94569.06;;;32.83;40.82
43553;BME280;29153;42.696;23.218;2022-07-01T09:54:53;94565.16;;;32.39;39.34
43553;BME280;29153;42.696;23.218;2022-07-01T09:57:21;94562.35;;;32.27;37.41
43553;BME280;29153;42.696;23.218;2022-07-01T09:59:50;94560.75;;;32.75;43.27
43553;BME280;29153;42.696;23.218;2022-07-01T10:02:21;94559.56;;;33.03;42.80
43553;BME280;29153;42.696;23.218;2022-07-01T10:04:58;94548.36;;;33.17;41.16
43553;BME280;29153;42.696;23.218;2022-07-01T10:07:36;94548.86;;;33.24;42.20
43553;BME280;29153;42.696;23.218;2022-07-01T10:10:09;94546.35;;;33.33;40.30
43553;BME280;29153;42.696;23.218;2022-07-01T10:12:53;94559.41;;;33.25;37.87
43553;BME280;29153;42.696;23.218;2022-07-01T10:15:23;94549.70;;;33.06;38.65
43553;BME280;29153;42.696;23.218;2022-07-01T10:17:52;94551.75;;;32.60;37.75
43553;BME280;29153;42.696;23.218;2022-07-01T10:20:26;94551.29;;;32.49;37.53
43553;BME280;29153;42.696;23.218;2022-07-01T10:23:04;94548.88;;;32.25;36.94
43553;BME280;29153;42.696;23.218;2022-07-01T10:25:34;94542.80;;;32.25;45.00
43553;BME280;29153;42.696;23.218;2022-07-01T10:28:26;94540.56;;;32.47;39.93
43553;BME280;29153;42.696;23.218;2022-07-01T10:31:07;94540.55;;;32.32;36.92
43553;BME280;29153;42.696;23.218;2022-07-01T10:36:33;94536.66;;;32.60;38.10
43553;BME280;29153;42.696;23.218;2022-07-01T10:41:39;94529.72;;;32.36;34.11
43553;BME280;29153;42.696;23.218;2022-07-01T10:44:13;94525.28;;;32.00;33.95
43553;BME280;29153;42.696;23.218;2022-07-01T10:49:18;94513.02;;;32.12;35.19
43553;BME280;29153;42.696;23.218;2022-07-01T10:59:51;94507.19;;;32.37;37.73
43553;BME280;29153;42.696;23.218;2022-07-01T11:02:31;94508.17;;;32.65;38.28
43553;BME280;29153;42.696;23.218;2022-07-01T11:05:01;94505.80;;;32.67;35.89
43553;BME280;29153;42.696;23.218;2022-07-01T11:07:30;94508.67;;;32.30;36.07
43553;BME280;29153;42.696;23.218;2022-07-01T11:10:00;94505.33;;;32.15;33.63
43553;BME280;29153;42.696;23.218;2022-07-01T11:12:30;94498.75;;;32.05;36.15
43553;BME280;29153;42.696;23.218;2022-07-01T11:14:59;94499.07;;;32.30;35.27
43553;BME280;29153;42.696;23.218;2022-07-01T11:17:28;94494.19;;;32.56;36.06
43553;BME280;29153;42.696;23.218;2022-07-01T11:19:57;94497.14;;;32.42;32.66
43553;BME280;29153;42.696;23.218;2022-07-01T11:22:27;94501.25;;;32.42;33.01
43553;BME280;29153;42.696;23.218;2022-07-01T11:25:02;94499.41;;;32.62;35.89
43553;BME280;29153;42.696;23.218;2022-07-01T11:27:27;94489.09;;;32.70;34.94
43553;BME280;29153;42.696;23.218;2022-07-01T11:30:07;94484.94;;;32.58;32.27
43553;BME280;29153;42.696;23.218;2022-07-01T11:32:41;94492.93;;;32.76;30.11
43553;BME280;29153;42.696;23.218;2022-07-01T11:35:13;94492.06;;;32.94;31.97
43553;BME280;29153;42.696;23.218;2022-07-01T11:38:04;94480.95;;;33.01;30.19
43553;BME280;29153;42.696;23.218;2022-07-01T11:40:50;94481.14;;;33.25;36.09
43553;BME280;29153;42.696;23.218;2022-07-01T11:43:27;94481.19;;;33.10;29.10
43553;BME280;29153;42.696;23.218;2022-07-01T11:45:51;94478.58;;;33.03;27.26
43553;BME280;29153;42.696;23.218;2022-07-01T11:48:29;94476.89;;;33.09;27.25
43553;BME280;29153;42.696;23.218;2022-07-01T11:50:58;94467.91;;;33.20;29.08
43553;BME280;29153;42.696;23.218;2022-07-01T11:53:26;94468.31;;;33.07;29.79
43553;BME280;29153;42.696;23.218;2022-07-01T11:55:54;94463.41;;;33.07;32.16
43553;BME280;29153;42.696;23.218;2022-07-01T11:58:21;94454.78;;;33.20;32.84
43553;BME280;29153;42.696;23.218;2022-07-01T12:00:49;94455.50;;;33.44;34.85
43553;BME280;29153;42.696;23.218;2022-07-01T12:03:30;94458.47;;;33.53;30.41
43553;BME280;29153;42.696;23.218;2022-07-01T12:05:58;94446.47;;;33.66;30.70
43553;BME280;29153;42.696;23.218;2022-07-01T12:08:26;94459.03;;;33.64;28.60
43553;BME280;29153;42.696;23.218;2022-07-01T12:10:54;94447.58;;;33.69;26.16
43553;BME280;29153;42.696;23.218;2022-07-01T12:13:25;94448.44;;;33.66;25.36
43553;BME280;29153;42.696;23.218;2022-07-01T12:15:53;94447.02;;;33.97;31.50
43553;BME280;29153;42.696;23.218;2022-07-01T12:18:20;94447.11;;;33.62;30.15
43553;BME280;29153;42.696;23.218;2022-07-01T12:20:53;94443.46;;;33.89;30.93
43553;BME280;29153;42.696;23.218;2022-07-01T12:23:20;94439.80;;;34.03;29.93
43553;BME280;29153;42.696;23.218;2022-07-01T12:25:49;94439.40;;;34.13;30.08
43553;BME280;29153;42.696;23.218;2022-07-01T12:28:32;94438.30;;;33.91;25.68
43553;BME280;29153;42.696;23.218;2022-07-01T12:31:08;94435.03;;;33.88;27.79
43553;BME280;29153;42.696;23.218;2022-07-01T12:33:37;94436.89;;;33.63;28.47
43553;BME280;29153;42.696;23.218;2022-07-01T12:36:06;94437.20;;;33.57;27.47
43553;BME280;29153;42.696;23.218;2022-07-01T12:38:35;94438.33;;;33.71;26.27
43553;BME280;29153;42.696;23.218;2022-07-01T12:41:02;94436.84;;;33.94;25.94
43553;BME280;29153;42.696;23.218;2022-07-01T12:43:31;94433.02;;;34.08;28.42
43553;BME280;29153;42.696;23.218;2022-07-01T12:46:01;94424.61;;;34.15;28.06
43553;BME280;29153;42.696;23.218;2022-07-01T12:48:29;94428.02;;;34.22;25.37
43553;BME280;29153;42.696;23.218;2022-07-01T12:50:58;94414.97;;;34.51;26.21
43553;BME280;29153;42.696;23.218;2022-07-01T12:53:27;94413.09;;;34.88;27.02
43553;BME280;29153;42.696;23.218;2022-07-01T12:55:57;94421.33;;;35.29;30.19
43553;BME280;29153;42.696;23.218;2022-07-01T12:58:26;94426.81;;;35.37;28.43
43553;BME280;29153;42.696;23.218;2022-07-01T13:00:58;94425.20;;;35.60;29.54
43553;BME280;29153;42.696;23.218;2022-07-01T13:03:27;94416.29;;;35.40;26.84
43553;BME280;29153;42.696;23.218;2022-07-01T13:05:56;94416.88;;;34.94;25.30
43553;BME280;29153;42.696;23.218;2022-07-01T13:08:23;94423.78;;;34.78;30.56
43553;BME280;29153;42.696;23.218;2022-07-01T13:10:51;94416.73;;;34.69;30.51
43553;BME280;29153;42.696;23.218;2022-07-01T13:13:19;94416.16;;;34.34;33.66
43553;BME280;29153;42.696;23.218;2022-07-01T13:15:49;94419.57;;;33.94;30.51
43553;BME280;29153;42.696;23.218;2022-07-01T13:18:16;94415.59;;;33.27;28.56
43553;BME280;29153;42.696;23.218;2022-07-01T13:20:44;94416.34;;;33.20;31.48
43553;BME280;29153;42.696;23.218;2022-07-01T13:23:12;94412.69;;;33.03;38.20
43553;BME280;29153;42.696;23.218;2022-07-01T13:25:41;94416.83;;;32.53;35.66
43553;BME280;29153;42.696;23.218;2022-07-01T13:28:09;94412.42;;;32.09;30.83
43553;BME280;29153;42.696;23.218;2022-07-01T13:30:36;94421.06;;;31.89;29.34
43553;BME280;29153;42.696;23.218;2022-07-01T13:33:04;94412.60;;;32.06;31.50
43553;BME280;29153;42.696;23.218;2022-07-01T13:35:32;94415.82;;;31.56;33.32
43553;BME280;29153;42.696;23.218;2022-07-01T13:37:59;94416.14;;;31.77;38.38
43553;BME280;29153;42.696;23.218;2022-07-01T13:40:27;94412.83;;;31.62;35.29
43553;BME280;29153;42.696;23.218;2022-07-01T13:42:54;94416.50;;;31.63;37.89
43553;BME280;29153;42.696;23.218;2022-07-01T13:45:22;94412.67;;;31.73;39.89